Flight Track Log - Related Links

Times and Time Zones

All times are in EDT time to prevent confusion due to time zone crossing. See the AWE1693 flight status page for this flight to view local times or setup timezone preferences in your user account.

Time Position Orientation Groundspeed Altitude Reporting Facility
EDT Latitude Longitude Course Direction KTS MPH feet Rate Location/Type
Sat 12:13:33 PM 35.2289 -80.9572 165° South 170 196 1,600  Level Atlanta Center
Sat 12:14:46 PM 35.2864 -81.0058 325° Northwest 238 274 3,000 1,612 Climbing Atlanta Center
Sat 12:15:47 PM 35.2867 -81.0950 270° West 301 346 5,200 2,303 Climbing Atlanta Center
Sat 12:16:00 PM 34.9519 -80.6086 175° South  Level Estimated
Sat 12:16:25 PM 35.2692 -81.1567 251° West 288 331 6,800  Level Atlanta Center
Sat 12:16:48 PM 35.2575 -81.1925 248° West 294 338 7,900 2,400 Climbing Atlanta Center
Sat 12:17:00 PM 34.8644 -80.4957 180° South  Level Estimated
Sat 12:17:25 PM 35.2164 -81.2119 201° Southwest 275 316 9,200  Level Atlanta Center
Sat 12:17:49 PM 35.1867 -81.1975 158° South 259 298 10,100 1,400 Climbing Atlanta Center
Sat 12:18:00 PM 34.7768 -80.3829 165° South  Level Estimated
Sat 12:18:25 PM 35.1444 -81.1711 153° Southeast 284 327 10,600  Level Atlanta Center
Sat 12:18:50 PM 35.1147 -81.1519 152° Southeast 306 352 11,400 2,200 Climbing Atlanta Center
Sat 12:19:25 PM 35.0681 -81.1256 155° Southeast 340 391 12,800 1,895 Climbing Atlanta Center
Sat 12:20:25 PM 34.9856 -81.0728 152° Southeast 340 391 14,400 1,600 Climbing Atlanta Center
Sat 12:21:25 PM 34.8967 -81.0175 153° Southeast 340 391 16,000 1,556 Climbing Atlanta Center
Sat 12:23:07 PM 34.7389 -80.9219 154° Southeast 375 432 18,600 1,556 Climbing Jacksonville Center
Sat 12:24:07 PM 34.6344 -80.8992 170° South 375 432 20,200 1,550 Climbing Jacksonville Center
Sat 12:25:07 PM 34.5297 -80.8889 175° South 375 432 21,700 1,250 Climbing Jacksonville Center
Sat 12:26:07 PM 34.4275 -80.8736 173° South 400 460 22,700 1,300 Climbing Jacksonville Center
Sat 12:27:07 PM 34.3186 -80.8586 174° South 400 460 24,300 1,150 Climbing Jacksonville Center
Sat 12:28:07 PM 34.1972 -80.8389 172° South 405 466 25,000 350 Climbing Jacksonville Center
Sat 12:29:07 PM 34.0783 -80.8267 175° South 419 482 25,000  Level Jacksonville Center
Sat 12:30:07 PM 33.9486 -80.8072 173° South 447 514 25,000  Level Jacksonville Center
Sat 12:31:07 PM 33.8306 -80.7350 153° Southeast 454 522 25,000 200 Level Jacksonville Center
Sat 12:32:07 PM 33.7206 -80.6503 147° Southeast 465 535 25,400 1,700 Climbing Jacksonville Center
Sat 12:33:07 PM 33.6147 -80.5706 148° Southeast 465 535 28,400 2,050 Climbing Jacksonville Center
Sat 12:34:07 PM 33.5131 -80.4961 149° Southeast 445 512 29,500 1,200 Climbing Jacksonville Center
Sat 12:35:07 PM 33.4136 -80.4217 148° Southeast 433 498 30,800 1,200 Climbing Jacksonville Center
Sat 12:36:07 PM 33.3161 -80.3497 148° Southeast 428 493 31,900 1,200 Climbing Jacksonville Center
Sat 12:37:07 PM 33.2228 -80.2756 146° Southeast 417 480 33,200 850 Climbing Jacksonville Center
Sat 12:38:07 PM 33.1639 -80.1581 121° Southeast 399 459 33,600 450 Climbing Jacksonville Center
Sat 12:39:07 PM 33.1178 -80.0431 116° Southeast 407 468 34,100 500 Climbing Jacksonville Center
Sat 12:40:07 PM 33.0667 -79.9156 116° Southeast 407 468 34,600 450 Climbing Jacksonville Center
Sat 12:41:07 PM 33.0075 -79.7939 120° Southeast 413 475 35,000 200 Climbing Jacksonville Center
Sat 12:42:07 PM 32.9397 -79.6750 124° Southeast 425 489 35,000  Level Jacksonville Center
Sat 12:43:07 PM 32.8617 -79.5664 131° Southeast 430 495 35,000  Level Jacksonville Center
Sat 12:44:07 PM 32.7775 -79.4608 133° Southeast 435 501 35,000  Level Jacksonville Center
Sat 12:45:07 PM 32.6933 -79.3578 134° Southeast 435 501 35,000  Level Jacksonville Center
Sat 12:46:07 PM 32.6069 -79.2578 136° Southeast 435 501 35,000  Level Jacksonville Center
Sat 12:47:07 PM 32.5186 -79.1628 138° Southeast 428 493 35,000  Level Jacksonville Center
Sat 12:48:07 PM 32.4303 -79.0678 138° Southeast 428 493 35,000  Level Jacksonville Center
Sat 12:49:07 PM 32.3558 -78.9531 128° Southeast 433 498 35,000  Level Jacksonville Center
Sat 12:50:07 PM 32.2933 -78.8278 121° Southeast 438 504 35,000  Level Jacksonville Center
Sat 12:51:07 PM 32.2308 -78.7006 120° Southeast 438 504 35,000  Level Jacksonville Center
Sat 12:52:07 PM 32.1681 -78.5758 121° Southeast 438 504 35,000  Level Jacksonville Center
Sat 12:53:07 PM 32.1053 -78.4511 121° Southeast 438 504 35,000  Level Jacksonville Center
Sat 12:54:07 PM 32.0425 -78.3244 120° Southeast 438 504 35,000  Level Jacksonville Center
Sat 12:55:07 PM 31.9681 -78.1764 121° Southeast 460 529 35,000  Level Jacksonville Center
Sat 12:56:07 PM 31.9031 -78.0572 123° Southeast 460 529 35,000  Level Jacksonville Center
Sat 12:57:07 PM 31.8394 -77.9261 120° Southeast 454 522 35,000  Level Jacksonville Center
Sat 12:58:07 PM 31.7719 -77.8028 123° Southeast 443 510 35,000  Level Jacksonville Center
Sat 12:59:07 PM 31.7083 -77.6744 120° Southeast 450 518 35,000  Level Jacksonville Center
Sat 01:00:07 PM 31.6444 -77.5439 120° Southeast 456 525 35,000  Level Jacksonville Center
Sat 01:01:07 PM 31.5767 -77.4233 123° Southeast 446 513 35,000  Level Jacksonville Center
Sat 01:02:07 PM 31.5106 -77.2958 121° Southeast 458 527 35,000  Level Jacksonville Center
Sat 01:03:07 PM 31.4442 -77.1633 120° Southeast 463 533 35,000  Level Jacksonville Center
Sat 01:04:07 PM 31.3758 -77.0386 123° Southeast 458 527 35,000  Level Jacksonville Center
Sat 01:05:05 PM 31.3500 -77.0000 140° Southeast 448 516 35,000  Level New York Oceanic (ODAPS)
Sat 01:11:00 PM 30.6773 -76.3538 141° Southeast 448 516 35,000  Level FlightAware Transoceanic
Sat 01:12:00 PM 30.5810 -76.2622 141° Southeast 448 516 35,000  Level FlightAware Transoceanic
Sat 01:13:00 PM 30.4845 -76.1708 141° Southeast 448 516 35,000  Level FlightAware Transoceanic
Sat 01:14:00 PM 30.3881 -76.0796 141° Southeast 448 516 35,000  Level FlightAware Transoceanic
Sat 01:15:00 PM 30.2915 -75.9885 141° Southeast 448 516 35,000  Level FlightAware Transoceanic
Sat 01:16:00 PM 30.1949 -75.8977 141° Southeast 448 516 35,000  Level FlightAware Transoceanic
Sat 01:17:00 PM 30.0982 -75.8070 141° Southeast 448 516 35,000  Level FlightAware Transoceanic
Sat 01:18:00 PM 30.0015 -75.7165 141° Southeast 448 516 35,000  Level FlightAware Transoceanic
Sat 01:19:00 PM 29.9047 -75.6261 141° Southeast 448 516 35,000  Level FlightAware Transoceanic
Sat 01:20:00 PM 29.8078 -75.5360 141° Southeast 448 516 35,000  Level FlightAware Transoceanic
Sat 01:21:00 PM 29.7109 -75.4460 141° Southeast 448 516 35,000  Level FlightAware Transoceanic
Sat 01:22:00 PM 29.6139 -75.3562 141° Southeast 448 516 35,000  Level FlightAware Transoceanic
Sat 01:23:00 PM 29.5169 -75.2666 141° Southeast 448 516 35,000  Level FlightAware Transoceanic
Sat 01:24:00 PM 29.4198 -75.1771 141° Southeast 448 516 35,000  Level FlightAware Transoceanic
Sat 01:25:00 PM 29.3226 -75.0878 141° Southeast 448 516 35,000  Level FlightAware Transoceanic
Sat 01:26:00 PM 29.2254 -74.9987 141° Southeast 448 516 35,000  Level FlightAware Transoceanic
Sat 01:27:00 PM 29.1281 -74.9098 141° Southeast 448 516 35,000  Level FlightAware Transoceanic
Sat 01:28:00 PM 29.0308 -74.8210 141° Southeast 448 516 35,000  Level FlightAware Transoceanic
Sat 01:29:00 PM 28.9334 -74.7324 142° Southeast 448 516 35,000  Level FlightAware Transoceanic
Sat 01:30:00 PM 28.8359 -74.6439 142° Southeast 448 516 35,000  Level FlightAware Transoceanic
Sat 01:31:00 PM 28.7384 -74.5556 142° Southeast 448 516 35,000  Level FlightAware Transoceanic
Sat 01:32:00 PM 28.6408 -74.4675 142° Southeast 448 516 35,000  Level FlightAware Transoceanic
Sat 01:33:00 PM 28.5432 -74.3795 142° Southeast 448 516 35,000  Level FlightAware Transoceanic
Sat 01:34:00 PM 28.4455 -74.2918 142° Southeast 448 516 35,000  Level FlightAware Transoceanic
Sat 01:35:00 PM 28.3478 -74.2041 142° Southeast 448 516 35,000  Level FlightAware Transoceanic
Sat 01:36:00 PM 28.2500 -74.1167 149° Southeast 448 516 35,000  Level FlightAware Transoceanic
Sat 01:36:35 PM 28.2500 -74.1167 149° Southeast 482 555 35,000  Level New York Oceanic (ODAPS)
Sat 01:37:00 PM 28.1345 -74.0389 149° Southeast 448 516 35,000  Level FlightAware Transoceanic
Sat 01:38:00 PM 28.0189 -73.9614 149° Southeast 448 516 35,000  Level FlightAware Transoceanic
Sat 01:39:00 PM 27.9033 -73.8840 149° Southeast 448 516 35,000  Level FlightAware Transoceanic
Sat 01:40:00 PM 27.7877 -73.8067 149° Southeast 448 516 35,000  Level FlightAware Transoceanic
Sat 01:41:00 PM 27.6720 -73.7297 149° Southeast 448 516 35,000  Level FlightAware Transoceanic
Sat 01:42:00 PM 27.5563 -73.6528 150° Southeast 482 555 35,000  Level FlightAware Transoceanic
Sat 01:43:00 PM 27.4405 -73.5760 150° Southeast 482 555 35,000  Level FlightAware Transoceanic
Sat 01:44:00 PM 27.3247 -73.4995 150° Southeast 482 555 35,000  Level FlightAware Transoceanic
Sat 01:45:00 PM 27.2088 -73.4230 150° Southeast 482 555 35,000  Level FlightAware Transoceanic
Sat 01:46:00 PM 27.0929 -73.3468 150° Southeast 482 555 35,000  Level FlightAware Transoceanic
Sat 01:47:00 PM 26.9770 -73.2707 150° Southeast 482 555 35,000  Level FlightAware Transoceanic
Sat 01:48:00 PM 26.8610 -73.1947 150° Southeast 482 555 35,000  Level FlightAware Transoceanic
Sat 01:49:00 PM 26.7450 -73.1189 150° Southeast 482 555 35,000  Level FlightAware Transoceanic
Sat 01:50:00 PM 26.6289 -73.0433 150° Southeast 482 555 35,000  Level FlightAware Transoceanic
Sat 01:51:00 PM 26.5128 -72.9678 150° Southeast 482 555 35,000  Level FlightAware Transoceanic
Sat 01:52:00 PM 26.3967 -72.8925 150° Southeast 482 555 35,000  Level FlightAware Transoceanic
Sat 01:53:00 PM 26.2805 -72.8173 150° Southeast 482 555 35,000  Level FlightAware Transoceanic
Sat 01:54:00 PM 26.1643 -72.7422 150° Southeast 482 555 35,000  Level FlightAware Transoceanic
Sat 01:55:00 PM 26.0480 -72.6674 150° Southeast 482 555 35,000  Level FlightAware Transoceanic
Sat 01:56:00 PM 25.9317 -72.5926 150° Southeast 482 555 35,000  Level FlightAware Transoceanic
Sat 01:57:00 PM 25.8154 -72.5181 150° Southeast 482 555 35,000  Level FlightAware Transoceanic
Sat 01:58:00 PM 25.6990 -72.4436 150° Southeast 482 555 35,000  Level FlightAware Transoceanic
Sat 01:59:00 PM 25.5826 -72.3693 150° Southeast 482 555 35,000  Level FlightAware Transoceanic
Sat 02:00:00 PM 25.4662 -72.2952 150° Southeast 482 555 35,000  Level FlightAware Transoceanic
Sat 02:01:00 PM 25.3497 -72.2212 150° Southeast 482 555 35,000  Level FlightAware Transoceanic
Sat 02:02:00 PM 25.2332 -72.1473 150° Southeast 482 555 35,000  Level FlightAware Transoceanic
Sat 02:03:00 PM 25.1166 -72.0736 150° Southeast 482 555 35,000  Level FlightAware Transoceanic
Sat 02:04:00 PM 25.0000 -72.0000 147° Southeast 482 555 35,000  Level FlightAware Transoceanic
Sat 02:05:00 PM 24.8936 -71.9236 147° Southeast 482 555 35,000  Level FlightAware Transoceanic
Sat 02:06:00 PM 24.7872 -71.8472 147° Southeast 482 555 35,000  Level FlightAware Transoceanic
Sat 02:06:58 PM 24.6653 -71.9525 147° Southeast 470 541 35,000  Level Miami Center
Sat 02:07:00 PM 24.6807 -71.7710 147° Southeast 482 555 35,000  Level FlightAware Transoceanic
Sat 02:07:58 PM 24.5436 -71.9322 171° South 465 535 35,000  Level Miami Center
Sat 02:08:00 PM 24.5742 -71.6950 147° Southeast 482 555 35,000  Level FlightAware Transoceanic
Sat 02:08:58 PM 24.4244 -71.8686 154° Southeast 460 529 35,000  Level Miami Center
Sat 02:09:00 PM 24.4676 -71.6190 147° Southeast 482 555 35,000  Level FlightAware Transoceanic
Sat 02:09:58 PM 24.3206 -71.7656 138° Southeast 470 541 35,000  Level Miami Center
Sat 02:10:58 PM 24.2228 -71.6514 133° Southeast 485 558 35,000  Level Miami Center
Sat 02:11:58 PM 24.1208 -71.5442 136° Southeast 497 572 35,000  Level Miami Center
Sat 02:12:58 PM 24.0231 -71.4369 135° Southeast 497 572 35,000  Level Miami Center
Sat 02:13:58 PM 23.9250 -71.3275 134° Southeast 503 579 35,000  Level Miami Center
Sat 02:14:58 PM 23.8256 -71.2344 139° Southeast 489 563 35,000  Level Miami Center
Sat 02:15:58 PM 23.7272 -71.1231 134° Southeast 489 563 35,000  Level Miami Center
Sat 02:16:58 PM 23.6292 -71.0167 135° Southeast 489 563 35,000  Level Miami Center
Sat 02:17:58 PM 23.5311 -70.9103 135° Southeast 498 573 35,000  Level Miami Center
Sat 02:18:58 PM 23.4289 -70.8042 136° Southeast 503 579 35,000  Level Miami Center
Sat 02:19:58 PM 23.3306 -70.6981 135° Southeast 503 579 35,000 50 Level Miami Center
Sat 02:20:58 PM 23.2303 -70.5944 136° Southeast 497 572 35,100  Climbing Miami Center
Sat 02:21:58 PM 23.1319 -70.4911 136° Southeast 497 572 35,000 -50 Descending Miami Center
Sat 02:22:58 PM 23.0317 -70.3856 136° Southeast 502 578 35,000  Level Miami Center
Sat 02:23:58 PM 22.9333 -70.2869 137° Southeast 496 571 35,000  Level Miami Center
Sat 02:24:58 PM 22.8369 -70.1814 135° Southeast 496 571 35,000  Level Miami Center
Sat 02:25:58 PM 22.7344 -70.0767 137° Southeast 501 577 35,000  Level Miami Center
Sat 02:26:58 PM 22.6336 -69.9717 136° Southeast 501 577 35,000  Level Miami Center
Sat 02:27:58 PM 22.5328 -69.8672 136° Southeast 501 577 35,000  Level Miami Center
Sat 02:28:58 PM 22.4344 -69.7669 137° Southeast 501 577 35,000  Level Miami Center
Sat 02:29:58 PM 22.3336 -69.6625 136° Southeast 501 577 35,000  Level Miami Center
Sat 02:30:58 PM 22.2347 -69.5561 135° Southeast 501 577 35,000  Level Miami Center
Sat 02:31:58 PM 22.1339 -69.4564 137° Southeast 501 577 35,000  Level Miami Center
Sat 02:32:58 PM 22.0353 -69.3547 136° Southeast 496 571 35,000  Level Miami Center
Sat 02:33:58 PM 21.9386 -69.2553 136° Southeast 496 571 35,000  Level Miami Center
Sat 02:34:58 PM 21.8353 -69.1517 137° Southeast 496 571 35,000  Level Miami Center
Sat 02:35:58 PM 21.7303 -69.0508 138° Southeast 496 571 35,000 400 Level Miami Center
Sat 02:36:58 PM 21.6244 -68.9389 135° Southeast 496 571 35,800 700 Climbing Miami Center
Sat 02:37:58 PM 21.5233 -68.8358 137° Southeast 496 571 36,400 600 Climbing Miami Center
Sat 02:38:58 PM 21.4222 -68.7350 137° Southeast 501 577 37,000 300 Climbing Miami Center
Sat 02:39:58 PM 21.3208 -68.6344 137° Southeast 501 577 37,000  Level Miami Center
Sat 02:40:58 PM 21.2178 -68.5342 138° Southeast 501 577 37,000  Level Miami Center
Sat 02:41:58 PM 21.1228 -68.4336 135° Southeast 501 577 37,000  Level Miami Center
Sat 02:42:58 PM 21.0217 -68.3378 138° Southeast 496 571 37,000  Level Miami Center
Sat 02:43:58 PM 20.9283 -68.2328 134° Southeast 490 564 37,000  Level Miami Center
Sat 02:44:58 PM 20.8406 -68.1167 129° Southeast 495 570 37,000  Level Miami Center
Sat 02:45:58 PM 20.7550 -68.0028 129° Southeast 501 577 37,000  Level Miami Center
Sat 02:46:58 PM 20.6692 -67.8822 127° Southeast 501 577 37,000  Level Miami Center
Sat 02:47:58 PM 20.5872 -67.7639 126° Southeast 506 582 37,000  Level Miami Center
Sat 02:48:58 PM 20.4972 -67.6483 130° Southeast 506 582 37,000  Level Miami Center
Sat 02:49:23 PM 20.4833 -67.6000 107° East 500 575 37,000  Level San Juan Center
Sat 02:50:23 PM 20.4000 -67.4833 127° Southeast 500 575 37,000  Level San Juan Center
Sat 02:51:23 PM 20.3000 -67.3667 132° Southeast 500 575 37,000  Level San Juan Center
Sat 02:53:24 PM 20.1333 -67.1333 127° Southeast 510 587 37,000  Level San Juan Center
Sat 02:54:24 PM 20.0500 -67.0167 127° Southeast 510 587 37,000  Level San Juan Center
Sat 02:55:24 PM 19.9667 -66.9000 127° Southeast 500 575 37,000  Level San Juan Center
Sat 02:56:25 PM 19.8667 -66.7833 132° Southeast 500 575 37,000  Level San Juan Center
Sat 02:57:25 PM 19.7833 -66.6667 127° Southeast 500 575 37,000  Level San Juan Center
Sat 02:58:25 PM 19.7000 -66.5500 127° Southeast 490 564 37,000  Level San Juan Center
Sat 02:59:25 PM 19.6167 -66.4333 127° Southeast 500 575 37,000  Level San Juan Center
Sat 03:00:26 PM 19.5333 -66.3167 127° Southeast 490 564 37,000  Level San Juan Center
Sat 03:01:26 PM 19.4500 -66.2000 127° Southeast 500 575 37,000  Level San Juan Center
Sat 03:02:27 PM 19.3667 -66.1000 131° Southeast 490 564 37,000  Level San Juan Center
Sat 03:03:27 PM 19.2667 -65.9833 132° Southeast 490 564 37,000  Level San Juan Center
Sat 03:04:27 PM 19.1833 -65.8667 127° Southeast 490 564 37,000  Level San Juan Center
Sat 03:05:27 PM 19.1000 -65.7333 123° Southeast 490 564 37,000  Level San Juan Center
Sat 03:06:28 PM 19.0167 -65.6167 127° Southeast 490 564 37,000  Level San Juan Center
Sat 03:07:28 PM 18.9167 -65.5000 132° Southeast 490 564 37,000  Level San Juan Center
Sat 03:08:28 PM 18.8333 -65.4000 131° Southeast 490 564 37,000  Level San Juan Center
Sat 03:09:29 PM 18.7500 -65.2833 127° Southeast 490 564 37,000  Level San Juan Center
Sat 03:10:29 PM 18.6667 -65.1667 127° Southeast 500 575 37,000 50 Level San Juan Center
Sat 03:11:29 PM 18.5833 -65.0500 127° Southeast 500 575 37,100  Climbing San Juan Center
Sat 03:12:29 PM 18.5000 -64.9500 131° Southeast 500 575 37,000 -50 Descending San Juan Center
Sat 03:13:30 PM 18.4000 -64.8333 132° Southeast 500 575 37,000  Level San Juan Center
Sat 03:14:30 PM 18.3167 -64.7167 127° Southeast 490 564 37,000 -50 Level San Juan Center
Sat 03:15:30 PM 18.2333 -64.6000 127° Southeast 480 552 36,900 -1,686 Descending San Juan Center
Sat 03:16:31 PM 18.1500 -64.5000 131° Southeast 480 552 33,600 -3,025 Descending San Juan Center
Sat 03:17:31 PM 18.0667 -64.3833 127° Southeast 490 564 30,800 -2,550 Descending San Juan Center
Sat 03:18:31 PM 17.9833 -64.2833 131° Southeast 490 564 28,500 -2,281 Descending San Juan Center
Sat 03:19:32 PM 17.9000 -64.1667 127° Southeast 470 541 26,200 -2,182 Descending San Juan Center
Sat 03:20:32 PM 17.8167 -64.0667 131° Southeast 450 518 24,100 -2,100 Descending San Juan Center
Sat 03:21:32 PM 17.7333 -63.9667 131° Southeast 440 506 22,000 -2,033 Descending San Juan Center
Sat 03:22:33 PM 17.6500 -63.8667 131° Southeast 430 495 20,000 -2,033 Descending San Juan Center
Sat 03:23:33 PM 17.5833 -63.7667 125° Southeast 420 483 17,900 -1,950 Descending San Juan Center
Sat 03:24:33 PM 17.5167 -63.6833 130° Southeast 410 472 16,100 -1,736 Descending San Juan Center
Sat 03:25:34 PM 17.4667 -63.5833 118° Southeast 400 460 14,400 -1,686 Descending San Juan Center
Sat 03:26:34 PM 17.4500 -63.4667 98° East 380 437 12,700 -1,800 Descending San Juan Center
Sat 03:27:34 PM 17.4167 -63.3667 109° East 370 426 10,800 -1,983 Descending San Juan Center
Sat 03:28:35 PM 17.4000 -63.2500 98° East 370 426 8,700 -2,231 Descending San Juan Center
Sat 03:29:35 PM 17.3833 -63.1500 100° East 370 426 6,300 -2,400 Descending San Juan Center
Sat 03:31:00 PM 17.3382 -62.9765 118° Southeast  Level FlightAware Approximate
Sat 03:38:00 PM 17.3112 -62.7187 North  Level Estimated
Sat 03:39:00 PM 17.3112 -62.7187 North  Level Estimated
Sat 03:40:00 PM 17.3112 -62.7187 North  Level Estimated
Sat 03:41:00 PM 17.3112 -62.7187 North  Level Estimated

Login

Don't have an account? Register now (free) for customized features, flight alerts, and more!